createdAt,value
2024-05-09T00:00:18.487Z,0.78
2024-05-09T00:01:14.606Z,0.78
2024-05-09T00:02:13.555Z,0.77
2024-05-09T00:03:13.727Z,0.78
2024-05-09T00:04:13.582Z,0.78
2024-05-09T00:05:13.744Z,0.77
2024-05-09T00:06:13.698Z,0.77
2024-05-09T00:07:13.572Z,0.74
2024-05-09T00:08:13.604Z,0.76
2024-05-09T00:09:13.544Z,0.75
2024-05-09T00:10:22.370Z,0.75
2024-05-09T00:11:14.611Z,0.75
2024-05-09T00:12:13.612Z,0.75
2024-05-09T00:13:13.586Z,0.76
2024-05-09T00:14:13.570Z,0.75
2024-05-09T00:15:13.563Z,0.76
2024-05-09T00:16:13.554Z,0.75
2024-05-09T00:17:13.641Z,0.76
2024-05-09T00:18:13.761Z,0.75
2024-05-09T00:19:13.726Z,0.75
2024-05-09T00:20:20.184Z,0.75
2024-05-09T00:21:14.619Z,0.75
2024-05-09T00:22:13.606Z,0.75
2024-05-09T00:23:14.065Z,0.75
2024-05-09T00:24:13.591Z,0.75
2024-05-09T00:25:13.585Z,0.75
2024-05-09T00:26:13.626Z,0.75
2024-05-09T00:27:13.619Z,0.73
2024-05-09T00:28:13.606Z,0.73
2024-05-09T00:29:13.705Z,0.74
2024-05-09T00:30:21.015Z,0.74
2024-05-09T00:31:14.580Z,0.74
2024-05-09T00:32:13.734Z,0.74
2024-05-09T00:33:13.838Z,0.74
2024-05-09T00:34:13.689Z,0.74
2024-05-09T00:35:13.630Z,0.73
2024-05-09T00:36:13.600Z,0.74
2024-05-09T00:37:13.616Z,0.73
2024-05-09T00:38:13.651Z,0.74
2024-05-09T00:39:13.597Z,0.73
2024-05-09T00:40:18.768Z,0.73
2024-05-09T00:41:16.335Z,0.73
2024-05-09T00:42:13.633Z,0.73
2024-05-09T00:43:14.813Z,0.73
2024-05-09T00:44:13.672Z,0.74
2024-05-09T00:45:13.606Z,0.74
2024-05-09T00:46:13.606Z,0.74
2024-05-09T00:47:13.763Z,0.74
2024-05-09T00:48:16.191Z,0.73
2024-05-09T00:49:14.658Z,0.73
2024-05-09T00:50:19.267Z,0.74
2024-05-09T00:51:14.785Z,0.74
2024-05-09T00:52:13.683Z,0.74
2024-05-09T00:53:13.687Z,0.74
2024-05-09T00:54:13.613Z,0.73
2024-05-09T00:55:13.617Z,0.74
2024-05-09T00:56:13.656Z,0.74
2024-05-09T00:57:13.644Z,0.72
2024-05-09T00:58:13.640Z,0.70
2024-05-09T00:59:13.658Z,0.72
2024-05-09T01:00:22.612Z,0.73
2024-05-09T01:01:14.673Z,0.73
2024-05-09T01:02:13.714Z,0.73
2024-05-09T01:03:14.512Z,0.73
2024-05-09T01:04:13.670Z,0.72
2024-05-09T01:05:13.722Z,0.72
2024-05-09T01:06:13.634Z,0.73
2024-05-09T01:07:13.671Z,0.72
2024-05-09T01:08:13.719Z,0.72
2024-05-09T01:09:13.645Z,0.70
2024-05-09T01:10:20.852Z,0.72
2024-05-09T01:11:14.729Z,0.72
2024-05-09T01:12:13.919Z,0.72
2024-05-09T01:13:13.693Z,0.72
2024-05-09T01:14:13.719Z,0.73
2024-05-09T01:15:13.649Z,0.73
2024-05-09T01:16:13.649Z,0.71
2024-05-09T01:17:13.760Z,0.70
2024-05-09T01:18:14.251Z,0.71
2024-05-09T01:19:13.833Z,0.70
2024-05-09T01:21:14.190Z,0.72
2024-05-09T01:22:13.934Z,0.71
2024-05-09T01:23:15.672Z,0.71
2024-05-09T01:24:14.154Z,0.70
2024-05-09T01:25:14.185Z,0.71
2024-05-09T01:26:14.318Z,0.70
2024-05-09T01:27:14.323Z,0.71
2024-05-09T01:28:14.313Z,0.70
2024-05-09T01:29:14.394Z,0.69
2024-05-09T01:31:14.418Z,0.71
2024-05-09T01:32:14.594Z,0.68
2024-05-09T01:33:14.823Z,0.70
2024-05-09T01:34:14.537Z,0.69
2024-05-09T01:35:14.589Z,0.71
2024-05-09T01:36:14.614Z,0.70
2024-05-09T01:37:14.658Z,0.69
2024-05-09T01:38:14.729Z,0.68
2024-05-09T01:39:14.688Z,0.70
2024-05-09T01:40:18.671Z,0.69
2024-05-09T01:41:15.759Z,0.69
2024-05-09T01:42:14.766Z,0.69
2024-05-09T01:43:14.742Z,0.70
2024-05-09T01:44:14.781Z,0.70
2024-05-09T01:45:14.745Z,0.70
2024-05-09T01:46:14.761Z,0.70
2024-05-09T01:47:14.890Z,0.70
2024-05-09T01:48:14.958Z,0.70
2024-05-09T01:49:14.852Z,0.70
2024-05-09T01:51:14.855Z,0.69
2024-05-09T01:52:14.758Z,0.68
2024-05-09T01:53:15.361Z,0.69
2024-05-09T01:54:14.754Z,0.70
2024-05-09T01:55:14.754Z,0.69
2024-05-09T01:56:14.941Z,0.69
2024-05-09T01:57:14.786Z,0.69
2024-05-09T01:58:14.789Z,0.69
2024-05-09T01:59:14.817Z,0.68
2024-05-09T02:01:14.786Z,0.69
2024-05-09T02:02:15.038Z,0.68
2024-05-09T02:03:17.040Z,0.68
2024-05-09T02:04:15.017Z,0.69
2024-05-09T02:05:14.970Z,0.69
2024-05-09T02:06:14.925Z,0.67
2024-05-09T02:07:14.861Z,0.68
2024-05-09T02:08:14.971Z,0.69
2024-05-09T02:09:14.849Z,0.68
2024-05-09T02:10:20.337Z,0.67
2024-05-09T02:11:15.927Z,0.67
2024-05-09T02:12:15.071Z,0.68
2024-05-09T02:13:14.895Z,0.68
2024-05-09T02:14:14.917Z,0.68
2024-05-09T02:15:14.856Z,0.69
2024-05-09T02:16:14.857Z,0.68
2024-05-09T02:17:14.989Z,0.69
2024-05-09T02:18:15.059Z,0.68
2024-05-09T02:19:15.095Z,0.68
2024-05-09T02:20:22.438Z,0.68
2024-05-09T02:21:15.946Z,0.68
2024-05-09T02:22:14.882Z,0.68
2024-05-09T02:23:14.904Z,0.68
2024-05-09T02:24:14.852Z,0.67
2024-05-09T02:25:14.862Z,0.68
2024-05-09T02:26:14.929Z,0.67
2024-05-09T02:27:14.894Z,0.67
2024-05-09T02:28:14.885Z,0.67
2024-05-09T02:29:15.056Z,0.68
2024-05-09T02:30:22.706Z,0.67
2024-05-09T02:31:15.887Z,0.67
2024-05-09T02:32:14.947Z,0.67
2024-05-09T02:33:15.178Z,0.67
2024-05-09T02:34:14.997Z,0.68
2024-05-09T02:35:14.907Z,0.66
2024-05-09T02:36:14.890Z,0.67
2024-05-09T02:37:14.877Z,0.67
2024-05-09T02:38:14.952Z,0.67
2024-05-09T02:39:14.883Z,0.67
2024-05-09T02:40:21.451Z,0.67
2024-05-09T02:41:15.993Z,0.67
2024-05-09T02:42:14.913Z,0.67
2024-05-09T02:43:14.893Z,0.67
2024-05-09T02:44:14.956Z,0.66
2024-05-09T02:45:14.890Z,0.67
2024-05-09T02:46:14.918Z,0.68
2024-05-09T02:47:15.014Z,0.66
2024-05-09T02:48:15.181Z,0.67
2024-05-09T02:49:14.988Z,0.66
2024-05-09T02:50:19.419Z,0.65
2024-05-09T02:51:16.050Z,0.65
2024-05-09T02:52:14.940Z,0.65
2024-05-09T02:53:15.094Z,0.66
2024-05-09T02:54:14.917Z,0.66
2024-05-09T02:55:14.930Z,0.66
2024-05-09T02:56:15.039Z,0.66
2024-05-09T02:57:14.940Z,0.66
2024-05-09T02:58:14.921Z,0.65
2024-05-09T02:59:14.962Z,0.66
2024-05-09T03:00:19.112Z,0.65
2024-05-09T03:01:15.938Z,0.65
2024-05-09T03:02:14.998Z,0.65
2024-05-09T03:03:15.841Z,0.65
2024-05-09T03:04:14.971Z,0.66
2024-05-09T03:05:15.003Z,0.66
2024-05-09T03:06:14.955Z,0.66
2024-05-09T03:07:14.966Z,0.66
2024-05-09T03:08:15.207Z,0.66
2024-05-09T03:09:14.966Z,0.65
2024-05-09T03:10:22.196Z,0.65
2024-05-09T03:11:16.085Z,0.65
2024-05-09T03:12:15.109Z,0.66
2024-05-09T03:13:16.198Z,0.66
2024-05-09T03:14:15.030Z,0.65
2024-05-09T03:15:14.964Z,0.65
2024-05-09T03:16:14.961Z,0.66
2024-05-09T03:17:15.059Z,0.65
2024-05-09T03:18:15.134Z,0.66
2024-05-09T03:19:15.069Z,0.63
2024-05-09T03:20:20.687Z,0.64
2024-05-09T03:21:16.041Z,0.64
2024-05-09T03:22:15.010Z,0.65
2024-05-09T03:23:15.021Z,0.65
2024-05-09T03:24:14.989Z,0.65
2024-05-09T03:25:14.982Z,0.65
2024-05-09T03:26:15.010Z,0.66
2024-05-09T03:27:15.016Z,0.65
2024-05-09T03:28:14.999Z,0.64
2024-05-09T03:29:15.156Z,0.65
2024-05-09T03:31:14.992Z,0.64
2024-05-09T03:32:15.120Z,0.65
2024-05-09T03:33:15.925Z,0.65
2024-05-09T03:34:15.019Z,0.63
2024-05-09T03:35:15.124Z,0.64
2024-05-09T03:36:14.999Z,0.65
2024-05-09T03:37:15.047Z,0.63
2024-05-09T03:38:15.210Z,0.65
2024-05-09T03:39:15.032Z,0.64
2024-05-09T03:40:20.861Z,0.64
2024-05-09T03:41:16.081Z,0.64
2024-05-09T03:42:15.050Z,0.64
2024-05-09T03:43:15.033Z,0.65
2024-05-09T03:44:15.076Z,0.65
2024-05-09T03:45:15.026Z,0.63
2024-05-09T03:46:15.036Z,0.63
2024-05-09T03:47:15.124Z,0.64
2024-05-09T03:48:15.262Z,0.64
2024-05-09T03:49:15.187Z,0.65
2024-05-09T03:50:18.479Z,0.64
2024-05-09T03:51:16.097Z,0.64
2024-05-09T03:52:15.076Z,0.64
2024-05-09T03:53:15.190Z,0.63
2024-05-09T03:54:15.053Z,0.64
2024-05-09T03:55:15.061Z,0.63
2024-05-09T03:56:15.077Z,0.65
2024-05-09T03:57:15.130Z,0.64
2024-05-09T03:58:15.102Z,0.63
2024-05-09T03:59:15.207Z,0.63
2024-05-09T04:00:21.973Z,0.63
2024-05-09T04:01:16.110Z,0.63
2024-05-09T04:02:15.260Z,0.63
2024-05-09T04:03:15.456Z,0.63
2024-05-09T04:04:15.088Z,0.63
2024-05-09T04:05:15.088Z,0.64
2024-05-09T04:06:15.274Z,0.64
2024-05-09T04:07:15.103Z,0.63
2024-05-09T04:08:15.643Z,0.63
2024-05-09T04:09:15.071Z,0.63
2024-05-09T04:10:23.711Z,0.62
2024-05-09T04:11:16.187Z,0.62
2024-05-09T04:12:15.228Z,0.62
2024-05-09T04:13:15.093Z,0.62
2024-05-09T04:14:15.131Z,0.62
2024-05-09T04:15:15.094Z,0.63
2024-05-09T04:16:15.113Z,0.63
2024-05-09T04:17:15.156Z,0.62
2024-05-09T04:18:15.218Z,0.63
2024-05-09T04:19:15.237Z,0.62
2024-05-09T04:20:24.599Z,0.61
2024-05-09T04:21:16.171Z,0.62
2024-05-09T04:22:15.146Z,0.62
2024-05-09T04:23:15.313Z,0.62
2024-05-09T04:24:15.106Z,0.62
2024-05-09T04:25:15.100Z,0.63
2024-05-09T04:26:15.153Z,0.64
2024-05-09T04:27:15.160Z,0.62
2024-05-09T04:28:15.118Z,0.63
2024-05-09T04:29:15.192Z,0.62
2024-05-09T04:30:21.835Z,0.63
2024-05-09T04:31:16.133Z,0.63
2024-05-09T04:32:15.180Z,0.63
2024-05-09T04:33:15.655Z,0.63
2024-05-09T04:34:15.232Z,0.62
2024-05-09T04:35:15.200Z,0.63
2024-05-09T04:36:15.134Z,0.63
2024-05-09T04:37:15.146Z,0.61
2024-05-09T04:38:22.426Z,0.50
2024-05-09T04:39:22.424Z,0.50
2024-05-09T04:40:28.609Z,0.50
2024-05-09T04:41:23.573Z,0.50
2024-05-09T04:42:22.434Z,0.50
2024-05-09T04:43:22.406Z,0.50
2024-05-09T04:44:22.465Z,0.50
2024-05-09T04:45:22.411Z,0.50
2024-05-09T04:46:22.413Z,0.51
2024-05-09T04:47:22.531Z,0.51
2024-05-09T04:48:22.571Z,0.50
2024-05-09T04:49:22.559Z,0.51
2024-05-09T04:50:30.137Z,0.51
2024-05-09T04:51:23.444Z,0.51
2024-05-09T04:52:22.461Z,0.51
2024-05-09T04:53:22.494Z,0.51
2024-05-09T04:54:30.474Z,0.51
2024-05-09T04:55:23.434Z,0.51
2024-05-09T04:56:22.463Z,0.51
2024-05-09T04:57:22.508Z,0.51
2024-05-09T04:58:22.472Z,0.51
2024-05-09T04:59:22.475Z,0.51
2024-05-09T05:00:31.783Z,0.50
2024-05-09T05:01:23.453Z,0.50
2024-05-09T05:02:22.566Z,0.50
2024-05-09T05:03:22.777Z,0.50
2024-05-09T05:04:22.532Z,0.51
2024-05-09T05:05:22.481Z,0.50
2024-05-09T05:06:22.456Z,0.50
2024-05-09T05:07:22.486Z,0.51
2024-05-09T05:08:22.495Z,0.50
2024-05-09T05:09:22.462Z,0.50
2024-05-09T05:10:29.732Z,0.51
2024-05-09T05:11:23.580Z,0.51
2024-05-09T05:12:22.587Z,0.51
2024-05-09T05:13:23.618Z,0.51
2024-05-09T05:14:22.534Z,0.51
2024-05-09T05:15:22.472Z,0.52
2024-05-09T05:16:22.476Z,0.51
2024-05-09T05:17:22.574Z,0.51
2024-05-09T05:18:22.611Z,0.51
2024-05-09T05:19:22.542Z,0.51
2024-05-09T05:20:30.390Z,0.51
2024-05-09T05:21:23.542Z,0.51
2024-05-09T05:22:22.504Z,0.51
2024-05-09T05:23:22.692Z,0.51
2024-05-09T05:24:22.480Z,0.51
2024-05-09T05:25:22.480Z,0.50
2024-05-09T05:26:22.534Z,0.50
2024-05-09T05:27:22.520Z,0.51
2024-05-09T05:28:22.551Z,0.51
2024-05-09T05:29:22.566Z,0.51
2024-05-09T05:30:28.956Z,0.51
2024-05-09T05:31:23.568Z,0.52
2024-05-09T05:32:22.719Z,0.52
2024-05-09T05:33:23.181Z,0.52
2024-05-09T05:34:22.506Z,0.51
2024-05-09T05:35:22.581Z,0.51
2024-05-09T05:36:22.514Z,0.51
2024-05-09T05:37:22.548Z,0.50
2024-05-09T05:38:26.083Z,0.51
2024-05-09T05:39:23.538Z,0.51
2024-05-09T05:40:32.014Z,0.52
2024-05-09T05:41:23.546Z,0.51
2024-05-09T05:42:22.570Z,0.52
2024-05-09T05:43:22.539Z,0.52
2024-05-09T05:44:22.587Z,0.52
2024-05-09T05:45:22.538Z,0.51
2024-05-09T05:46:22.556Z,0.51
2024-05-09T05:47:22.625Z,0.51
2024-05-09T05:48:22.711Z,0.50
2024-05-09T05:49:22.836Z,0.51
2024-05-09T05:50:28.007Z,0.51
2024-05-09T05:51:23.566Z,0.51
2024-05-09T05:52:22.559Z,0.51
2024-05-09T05:53:22.632Z,0.51
2024-05-09T05:54:22.591Z,0.51
2024-05-09T05:55:22.563Z,0.51
2024-05-09T05:56:22.582Z,0.51
2024-05-09T05:57:22.561Z,0.52
2024-05-09T05:58:22.595Z,0.50
2024-05-09T05:59:22.698Z,0.51
2024-05-09T06:00:29.800Z,0.52
2024-05-09T06:01:23.619Z,0.52
2024-05-09T06:02:22.629Z,0.52
2024-05-09T06:03:22.673Z,0.52
2024-05-09T06:04:22.642Z,0.52
2024-05-09T06:05:23.432Z,0.51
2024-05-09T06:06:22.604Z,0.52
2024-05-09T06:07:22.586Z,0.51
2024-05-09T06:08:22.646Z,0.52
2024-05-09T06:09:22.594Z,0.51
2024-05-09T06:10:26.352Z,0.51
2024-05-09T06:11:23.669Z,0.51
2024-05-09T06:12:22.692Z,0.51
2024-05-09T06:13:22.614Z,0.51
2024-05-09T06:14:22.817Z,0.51
2024-05-09T06:15:22.607Z,0.52
2024-05-09T06:16:22.607Z,0.51
2024-05-09T06:17:22.776Z,0.51
2024-05-09T06:18:22.680Z,0.50
2024-05-09T06:19:22.756Z,0.52
2024-05-09T06:20:31.581Z,0.51
2024-05-09T06:21:23.634Z,0.51
2024-05-09T06:22:22.619Z,0.51
2024-05-09T06:23:22.765Z,0.51
2024-05-09T06:24:22.638Z,0.51
2024-05-09T06:25:22.619Z,0.50
2024-05-09T06:26:22.685Z,0.52
2024-05-09T06:27:22.622Z,0.52
2024-05-09T06:28:22.635Z,0.51
2024-05-09T06:29:22.679Z,0.50
2024-05-09T06:30:30.069Z,0.51
2024-05-09T06:31:23.635Z,0.51
2024-05-09T06:32:22.779Z,0.51
2024-05-09T06:33:22.811Z,0.51
2024-05-09T06:34:22.907Z,0.51
2024-05-09T06:35:22.658Z,0.52
2024-05-09T06:36:22.639Z,0.51
2024-05-09T06:37:22.792Z,0.51
2024-05-09T06:38:22.669Z,0.50
2024-05-09T06:39:22.644Z,0.51
2024-05-09T06:40:25.924Z,0.51
2024-05-09T06:41:23.714Z,0.51
2024-05-09T06:42:22.653Z,0.52
2024-05-09T06:43:22.718Z,0.51
2024-05-09T06:44:22.757Z,0.51
2024-05-09T06:45:22.653Z,0.52
2024-05-09T06:46:22.649Z,0.52
2024-05-09T06:47:22.764Z,0.51
2024-05-09T06:48:23.166Z,0.51
2024-05-09T06:49:22.766Z,0.53
2024-05-09T06:50:24.525Z,0.51
2024-05-09T06:51:23.663Z,0.52
2024-05-09T06:52:22.680Z,0.52
2024-05-09T06:53:22.747Z,0.52
2024-05-09T06:54:22.737Z,0.52
2024-05-09T06:55:22.675Z,0.51
2024-05-09T06:56:22.725Z,0.51
2024-05-09T06:57:22.662Z,0.52
2024-05-09T06:58:22.744Z,0.51
2024-05-09T06:59:22.764Z,0.51
2024-05-09T07:00:30.479Z,0.52
2024-05-09T07:01:23.748Z,0.52
2024-05-09T07:02:22.862Z,0.52
2024-05-09T07:03:22.795Z,0.52
2024-05-09T07:04:22.747Z,0.52
2024-05-09T07:05:22.765Z,0.52
2024-05-09T07:06:22.685Z,0.52
2024-05-09T07:07:22.680Z,0.51
2024-05-09T07:08:22.770Z,0.52
2024-05-09T07:09:22.697Z,0.50
2024-05-09T07:10:29.063Z,0.51
2024-05-09T07:11:23.752Z,0.51
2024-05-09T07:12:22.768Z,0.51
2024-05-09T07:13:22.733Z,0.52
2024-05-09T07:14:22.804Z,0.52
2024-05-09T07:15:22.707Z,0.52
2024-05-09T07:16:22.709Z,0.52
2024-05-09T07:17:22.793Z,0.52
2024-05-09T07:18:22.839Z,0.52
2024-05-09T07:19:22.889Z,0.52
2024-05-09T07:20:31.841Z,0.50
2024-05-09T07:21:23.772Z,0.51
2024-05-09T07:22:22.730Z,0.51
2024-05-09T07:23:22.769Z,0.51
2024-05-09T07:24:22.728Z,0.51
2024-05-09T07:25:22.725Z,0.52
2024-05-09T07:26:22.748Z,0.51
2024-05-09T07:27:22.735Z,0.51
2024-05-09T07:28:22.747Z,0.51
2024-05-09T07:29:22.784Z,0.51
2024-05-09T07:30:27.792Z,0.50
2024-05-09T07:31:23.749Z,0.50
2024-05-09T07:32:22.856Z,0.51
2024-05-09T07:33:24.133Z,0.51
2024-05-09T07:34:22.816Z,0.51
2024-05-09T07:35:22.769Z,0.51
2024-05-09T07:36:22.759Z,0.52
2024-05-09T07:37:22.764Z,0.51
2024-05-09T07:38:22.825Z,0.52
2024-05-09T07:39:22.769Z,0.51
2024-05-09T07:41:22.824Z,0.53
2024-05-09T07:42:22.759Z,0.51
2024-05-09T07:43:22.792Z,0.51
2024-05-09T07:44:22.793Z,0.51
2024-05-09T07:45:40.556Z,0.51
2024-05-09T07:47:17.234Z,0.51
2024-05-09T07:48:49.063Z,0.51
2024-05-09T07:53:30.164Z,0.51
2024-05-09T07:54:22.878Z,0.51
2024-05-09T07:55:23.049Z,0.52
2024-05-09T07:56:24.082Z,0.52
2024-05-09T07:57:22.833Z,0.53
2024-05-09T07:58:22.826Z,0.53
2024-05-09T07:59:22.807Z,0.53
2024-05-09T08:00:29.530Z,0.52
2024-05-09T08:01:23.920Z,0.52
2024-05-09T08:02:22.960Z,0.52
2024-05-09T08:03:23.043Z,0.52
2024-05-09T08:04:23.694Z,0.52
2024-05-09T08:05:22.879Z,0.52
2024-05-09T08:06:22.811Z,0.53
2024-05-09T08:07:22.887Z,0.51
2024-05-09T08:08:22.841Z,0.51
2024-05-09T08:09:22.849Z,0.51
2024-05-09T08:10:27.427Z,0.50
2024-05-09T08:11:24.026Z,0.50
2024-05-09T08:12:22.820Z,0.50
2024-05-09T08:13:23.210Z,0.51
2024-05-09T08:14:22.823Z,0.51
2024-05-09T08:15:22.825Z,0.51
2024-05-09T08:16:23.043Z,0.52
2024-05-09T08:17:22.938Z,0.50
2024-05-09T08:18:22.967Z,0.51
2024-05-09T08:19:22.955Z,0.50
2024-05-09T08:20:30.686Z,0.51
2024-05-09T08:21:23.965Z,0.51
2024-05-09T08:22:22.960Z,0.51
2024-05-09T08:23:22.973Z,0.51
2024-05-09T08:24:22.957Z,0.51
2024-05-09T08:25:23.011Z,0.51
2024-05-09T08:26:22.952Z,0.51
2024-05-09T08:27:22.949Z,0.52
2024-05-09T08:28:23.103Z,0.51
2024-05-09T08:29:23.028Z,0.51
2024-05-09T08:30:30.047Z,0.51
2024-05-09T08:31:24.168Z,0.51
2024-05-09T08:32:23.115Z,0.51
2024-05-09T08:33:23.210Z,0.51
2024-05-09T08:34:23.175Z,0.51
2024-05-09T08:35:23.087Z,0.51
2024-05-09T08:36:23.086Z,0.51
2024-05-09T08:37:26.069Z,0.51
2024-05-09T08:38:24.132Z,0.51
2024-05-09T08:39:23.081Z,0.51
2024-05-09T08:40:30.724Z,0.51
2024-05-09T08:41:24.100Z,0.51
2024-05-09T08:42:23.098Z,0.51
2024-05-09T08:43:23.416Z,0.51
2024-05-09T08:44:23.096Z,0.52
2024-05-09T08:45:23.100Z,0.51
2024-05-09T08:46:23.229Z,0.52
2024-05-09T08:47:23.166Z,0.51
2024-05-09T08:48:23.415Z,0.52
2024-05-09T08:49:23.201Z,0.52
2024-05-09T08:50:32.037Z,0.53
2024-05-09T08:51:24.158Z,0.53
2024-05-09T08:52:23.152Z,0.51
2024-05-09T08:53:23.219Z,0.52
2024-05-09T08:54:23.148Z,0.52
2024-05-09T08:55:23.157Z,0.51
2024-05-09T08:56:23.156Z,0.51
2024-05-09T08:57:23.154Z,0.51
2024-05-09T08:58:23.197Z,0.51
2024-05-09T08:59:23.166Z,0.52
2024-05-09T09:00:33.459Z,0.53
2024-05-09T09:01:24.306Z,0.53
2024-05-09T09:02:23.418Z,0.53
2024-05-09T09:03:23.281Z,0.52
2024-05-09T09:04:24.169Z,0.51
2024-05-09T09:05:23.410Z,0.51
2024-05-09T09:06:23.248Z,0.52
2024-05-09T09:07:23.329Z,0.50
2024-05-09T09:08:23.234Z,0.52
2024-05-09T09:09:23.240Z,0.52
2024-05-09T09:10:29.748Z,0.50
2024-05-09T09:11:24.347Z,0.51
2024-05-09T09:12:23.276Z,0.51
2024-05-09T09:13:23.301Z,0.51
2024-05-09T09:14:23.279Z,0.51
2024-05-09T09:15:23.323Z,0.52
2024-05-09T09:16:23.586Z,0.51
2024-05-09T09:17:23.404Z,0.52
2024-05-09T09:18:23.408Z,0.52
2024-05-09T09:19:23.567Z,0.52
2024-05-09T09:20:29.390Z,0.52
2024-05-09T09:21:24.391Z,0.52
2024-05-09T09:22:23.365Z,0.52
2024-05-09T09:23:23.363Z,0.52
2024-05-09T09:24:23.359Z,0.51
2024-05-09T09:25:23.382Z,0.52
2024-05-09T09:26:23.447Z,0.51
2024-05-09T09:27:23.365Z,0.52
2024-05-09T09:28:23.465Z,0.52
2024-05-09T09:29:23.383Z,0.52
2024-05-09T09:30:34.525Z,0.51
2024-05-09T09:31:24.463Z,0.52
2024-05-09T09:32:23.520Z,0.52
2024-05-09T09:33:23.492Z,0.52
2024-05-09T09:34:23.613Z,0.53
2024-05-09T09:35:23.511Z,0.51
2024-05-09T09:36:23.459Z,0.53
2024-05-09T09:37:23.485Z,0.53
2024-05-09T09:38:23.480Z,0.51
2024-05-09T09:39:23.518Z,0.52
2024-05-09T09:40:29.261Z,0.51
2024-05-09T09:41:24.541Z,0.52
2024-05-09T09:42:23.566Z,0.52
2024-05-09T09:43:23.564Z,0.52
2024-05-09T09:44:23.571Z,0.52
2024-05-09T09:45:23.547Z,0.53
2024-05-09T09:46:23.652Z,0.52
2024-05-09T09:47:23.617Z,0.52
2024-05-09T09:48:23.858Z,0.52
2024-05-09T09:49:23.610Z,0.50
2024-05-09T09:50:27.865Z,0.53
2024-05-09T09:51:24.625Z,0.53
2024-05-09T09:52:23.760Z,0.52
2024-05-09T09:53:23.659Z,0.52
2024-05-09T09:54:23.621Z,0.52
2024-05-09T09:55:23.755Z,0.52
2024-05-09T09:56:23.628Z,0.52
2024-05-09T09:57:23.651Z,0.53
2024-05-09T09:58:23.810Z,0.51
2024-05-09T09:59:23.621Z,0.51
2024-05-09T10:00:29.925Z,0.52
2024-05-09T10:01:24.782Z,0.52
2024-05-09T10:02:23.877Z,0.52
2024-05-09T10:03:23.869Z,0.52
2024-05-09T10:04:23.816Z,0.51
2024-05-09T10:05:23.980Z,0.52
2024-05-09T10:06:23.693Z,0.52
2024-05-09T10:07:23.773Z,0.52
2024-05-09T10:08:23.757Z,0.52
2024-05-09T10:09:23.700Z,0.51
2024-05-09T10:10:30.334Z,0.52
2024-05-09T10:11:24.808Z,0.52
2024-05-09T10:12:23.813Z,0.52
2024-05-09T10:13:23.902Z,0.53
2024-05-09T10:14:23.762Z,0.51
2024-05-09T10:15:23.765Z,0.52
2024-05-09T10:16:24.045Z,0.52
2024-05-09T10:17:23.834Z,0.51
2024-05-09T10:18:23.884Z,0.53
2024-05-09T10:19:23.894Z,0.51
2024-05-09T10:20:28.057Z,0.52
2024-05-09T10:21:24.790Z,0.52
2024-05-09T10:22:23.871Z,0.52
2024-05-09T10:23:23.871Z,0.52
2024-05-09T10:24:23.811Z,0.52
2024-05-09T10:25:24.075Z,0.53
2024-05-09T10:26:23.799Z,0.52
2024-05-09T10:27:23.794Z,0.51
2024-05-09T10:28:23.850Z,0.52
2024-05-09T10:29:23.813Z,0.52
2024-05-09T10:30:33.317Z,0.52
2024-05-09T10:31:24.875Z,0.52
2024-05-09T10:32:23.882Z,0.52
2024-05-09T10:33:23.939Z,0.52
2024-05-09T10:34:24.243Z,0.52
2024-05-09T10:35:23.844Z,0.53
2024-05-09T10:36:23.866Z,0.53
2024-05-09T10:37:23.894Z,0.52
2024-05-09T10:38:23.872Z,0.51
2024-05-09T10:39:23.843Z,0.52
2024-05-09T10:40:29.339Z,0.52
2024-05-09T10:41:24.858Z,0.52
2024-05-09T10:42:23.854Z,0.52
2024-05-09T10:43:23.920Z,0.52
2024-05-09T10:44:23.855Z,0.52
2024-05-09T10:45:23.858Z,0.53
2024-05-09T10:46:23.889Z,0.52
2024-05-09T10:47:23.971Z,0.52
2024-05-09T10:48:24.081Z,0.52
2024-05-09T10:49:23.998Z,0.53
2024-05-09T10:50:28.655Z,0.52
2024-05-09T10:51:24.869Z,0.52
2024-05-09T10:52:23.918Z,0.53
2024-05-09T10:53:23.901Z,0.52
2024-05-09T10:54:23.880Z,0.53
2024-05-09T10:55:23.969Z,0.52
2024-05-09T10:56:23.880Z,0.52
2024-05-09T10:57:23.889Z,0.52
2024-05-09T10:58:23.963Z,0.53
2024-05-09T10:59:23.890Z,0.53
2024-05-09T11:00:30.542Z,0.53
2024-05-09T11:01:24.957Z,0.53
2024-05-09T11:02:24.068Z,0.53
2024-05-09T11:03:24.009Z,0.53
2024-05-09T11:04:23.949Z,0.52
2024-05-09T11:05:24.032Z,0.53
2024-05-09T11:06:23.897Z,0.52
2024-05-09T11:07:23.949Z,0.52
2024-05-09T11:08:23.980Z,0.52
2024-05-09T11:09:23.889Z,0.52
2024-05-09T11:10:27.614Z,0.52
2024-05-09T11:11:24.900Z,0.52
2024-05-09T11:12:24.916Z,0.52
2024-05-09T11:13:23.908Z,0.52
2024-05-09T11:14:23.905Z,0.52
2024-05-09T11:15:23.920Z,0.52
2024-05-09T11:16:24.019Z,0.52
2024-05-09T11:17:24.040Z,0.52
2024-05-09T11:18:25.100Z,0.52
2024-05-09T11:19:24.034Z,0.50
2024-05-09T11:20:29.506Z,0.52
2024-05-09T11:21:25.033Z,0.52
2024-05-09T11:22:24.008Z,0.52
2024-05-09T11:23:23.926Z,0.52
2024-05-09T11:24:23.945Z,0.52
2024-05-09T11:25:23.966Z,0.52
2024-05-09T11:26:23.923Z,0.53
2024-05-09T11:27:23.937Z,0.52
2024-05-09T11:28:24.036Z,0.53
2024-05-09T11:29:23.967Z,0.52
2024-05-09T11:30:29.943Z,0.52
2024-05-09T11:31:25.223Z,0.52
2024-05-09T11:32:23.979Z,0.52
2024-05-09T11:33:24.055Z,0.53
2024-05-09T11:34:24.053Z,0.52
2024-05-09T11:35:23.959Z,0.52
2024-05-09T11:36:23.940Z,0.51
2024-05-09T11:37:23.966Z,0.52
2024-05-09T11:38:23.938Z,0.53
2024-05-09T11:39:23.944Z,0.52
2024-05-09T11:40:26.041Z,0.52
2024-05-09T11:41:23.966Z,0.52
2024-05-09T11:42:23.948Z,0.52
2024-05-09T11:43:24.018Z,0.52
2024-05-09T11:44:23.963Z,0.52
2024-05-09T11:45:23.950Z,0.52
2024-05-09T11:46:24.080Z,0.52
2024-05-09T11:47:24.072Z,0.52
2024-05-09T11:48:24.149Z,0.52
2024-05-09T11:49:26.913Z,0.53
2024-05-09T11:50:29.934Z,0.53
2024-05-09T11:51:24.964Z,0.53
2024-05-09T11:52:24.012Z,0.53
2024-05-09T11:53:23.989Z,0.54
2024-05-09T11:54:23.984Z,0.53
2024-05-09T11:55:27.540Z,0.52
2024-05-09T11:56:23.977Z,0.53
2024-05-09T11:57:24.000Z,0.53
2024-05-09T11:58:24.013Z,0.53
2024-05-09T11:59:23.972Z,0.53
2024-05-09T12:00:33.533Z,0.54
2024-05-09T12:01:27.692Z,0.53
2024-05-09T12:02:24.050Z,0.53
2024-05-09T12:03:24.161Z,0.52
2024-05-09T12:04:24.200Z,0.53
2024-05-09T12:05:24.252Z,0.53
2024-05-09T12:06:23.976Z,0.53
2024-05-09T12:07:24.157Z,0.53
2024-05-09T12:08:24.012Z,0.54
2024-05-09T12:09:23.980Z,0.52
2024-05-09T12:10:32.107Z,0.53
2024-05-09T12:11:25.034Z,0.53
2024-05-09T12:12:23.989Z,0.53
2024-05-09T12:13:24.216Z,0.53
2024-05-09T12:14:24.008Z,0.54
2024-05-09T12:15:24.063Z,0.54
2024-05-09T12:16:24.403Z,0.52
2024-05-09T12:17:24.122Z,0.53
2024-05-09T12:18:24.036Z,0.52
2024-05-09T12:19:24.073Z,0.53
2024-05-09T12:20:32.319Z,0.54
2024-05-09T12:21:25.015Z,0.53
2024-05-09T12:22:24.029Z,0.54
2024-05-09T12:23:24.010Z,0.54
2024-05-09T12:24:24.009Z,0.54
2024-05-09T12:25:24.087Z,0.53
2024-05-09T12:26:24.017Z,0.52
2024-05-09T12:27:24.010Z,0.51
2024-05-09T12:28:24.304Z,0.52
2024-05-09T12:29:24.018Z,0.51
2024-05-09T12:30:33.079Z,0.53
2024-05-09T12:31:25.157Z,0.53
2024-05-09T12:32:24.089Z,0.53
2024-05-09T12:33:24.111Z,0.53
2024-05-09T12:34:24.062Z,0.53
2024-05-09T12:35:24.131Z,0.54
2024-05-09T12:36:24.027Z,0.52
2024-05-09T12:37:24.116Z,0.52
2024-05-09T12:38:24.055Z,0.53
2024-05-09T12:39:24.084Z,0.52
2024-05-09T12:40:31.839Z,0.51
2024-05-09T12:41:25.054Z,0.52
2024-05-09T12:42:27.455Z,0.52
2024-05-09T12:43:25.217Z,0.52
2024-05-09T12:44:24.069Z,0.52
2024-05-09T12:45:24.039Z,0.52
2024-05-09T12:46:24.150Z,0.53
2024-05-09T12:47:24.147Z,0.52
2024-05-09T12:48:24.185Z,0.51
2024-05-09T12:49:24.265Z,0.53
2024-05-09T12:50:31.068Z,0.53
2024-05-09T12:51:25.066Z,0.53
2024-05-09T12:52:24.085Z,0.53
2024-05-09T12:53:24.127Z,0.53
2024-05-09T12:54:24.150Z,0.53
2024-05-09T12:55:24.131Z,0.53
2024-05-09T12:56:24.081Z,0.51
2024-05-09T12:57:24.115Z,0.52
2024-05-09T12:58:24.514Z,0.52
2024-05-09T12:59:24.074Z,0.52
2024-05-09T13:00:31.396Z,0.52
2024-05-09T13:01:25.133Z,0.52
2024-05-09T13:02:24.311Z,0.52
2024-05-09T13:03:24.258Z,0.52
2024-05-09T13:04:24.267Z,0.51
2024-05-09T13:05:24.464Z,0.53
2024-05-09T13:06:24.074Z,0.52
2024-05-09T13:07:24.124Z,0.53
2024-05-09T13:08:24.142Z,0.52
2024-05-09T13:09:24.106Z,0.52
2024-05-09T13:10:31.099Z,0.51
2024-05-09T13:11:25.161Z,0.51
2024-05-09T13:12:24.426Z,0.51
2024-05-09T13:13:24.179Z,0.52
2024-05-09T13:14:24.088Z,0.51
2024-05-09T13:15:24.139Z,0.52
2024-05-09T13:16:24.274Z,0.52
2024-05-09T13:17:24.211Z,0.52
2024-05-09T13:18:24.195Z,0.52
2024-05-09T13:19:24.178Z,0.52
2024-05-09T13:20:31.143Z,0.52
2024-05-09T13:21:25.101Z,0.52
2024-05-09T13:22:24.153Z,0.51
2024-05-09T13:23:24.126Z,0.52
2024-05-09T13:24:24.107Z,0.52
2024-05-09T13:25:24.136Z,0.52
2024-05-09T13:26:24.138Z,0.53
2024-05-09T13:27:24.112Z,0.52
2024-05-09T13:28:24.157Z,0.52
2024-05-09T13:29:24.142Z,0.51